Time;durP1;ratioP1;P1;durP2;ratioP2;P2;SDS_P1;SDS_P2;PMS_P1;PMS_P2;Temp;Humidity;BMP_temperature;BMP_pressure;BME280_temperature;BME280_humidity;BME280_pressure;Samples;Min_cycle;Max_cycle;Signal;HPM_P1;HPM_P2
2021/04/15 00:02:59;;;;;;;0.60;0.60;;;20.30;45.40;;;;;;7673665;23;20393;-66
2021/04/15 00:06:22;;;;;;;0.90;0.70;;;20.30;45.40;;;;;;7674096;23;20012;-65
2021/04/15 00:09:24;;;;;;;1.20;0.90;;;20.30;46.20;;;;;;7673488;23;20008;-65
2021/04/15 00:12:24;;;;;;;1.88;1.10;;;20.30;45.30;;;;;;7673609;23;20008;-66
2021/04/15 00:15:26;;;;;;;1.20;1.00;;;20.30;45.40;;;;;;7674235;23;20001;-65
2021/04/15 00:18:28;;;;;;;1.05;0.90;;;20.30;45.40;;;;;;7673572;23;20009;-66
2021/04/15 00:21:28;;;;;;;1.20;0.77;;;20.30;45.40;;;;;;7673881;23;20432;-66
2021/04/15 00:24:29;;;;;;;0.85;0.70;;;20.30;45.30;;;;;;7673592;23;20009;-66
2021/04/15 00:27:29;;;;;;;1.05;0.93;;;20.20;45.50;;;;;;7673828;23;20013;-65
2021/04/15 00:30:30;;;;;;;0.73;0.68;;;20.30;45.30;;;;;;7673530;23;20458;-66
2021/04/15 00:33:31;;;;;;;1.25;0.90;;;20.30;45.30;;;;;;7673728;23;20008;-66
2021/04/15 00:36:31;;;;;;;1.08;0.90;;;20.30;45.50;;;;;;7673746;23;20063;-64
2021/04/15 00:39:32;;;;;;;0.93;0.77;;;20.20;45.30;;;;;;7673626;23;20016;-66
2021/04/15 00:42:32;;;;;;;0.75;0.75;;;20.30;46.20;;;;;;7673498;23;20004;-65
2021/04/15 00:45:38;;;;;;;0.85;0.75;;;20.30;45.40;;;;;;7673755;23;20004;-66
2021/04/15 00:48:41;;;;;;;1.02;0.93;;;20.20;45.40;;;;;;7673192;23;20104;-65
2021/04/15 00:51:52;;;;;;;0.90;0.73;;;20.20;45.30;;;;;;7673769;23;20012;-65
2021/04/15 00:55:05;;;;;;;0.90;0.73;;;20.20;45.40;;;;;;7673473;23;20005;-66
2021/04/15 00:58:06;;;;;;;0.88;0.80;;;20.20;45.30;;;;;;7673614;23;20491;-65
2021/04/15 01:01:07;;;;;;;1.25;1.08;;;20.20;45.30;;;;;;7673706;23;20040;-66
2021/04/15 01:04:08;;;;;;;1.08;0.98;;;20.30;45.60;;;;;;7673403;23;20457;-65
2021/04/15 01:07:10;;;;;;;1.17;0.98;;;20.20;45.40;;;;;;7673592;23;20009;-66
2021/04/15 01:10:12;;;;;;;0.70;0.68;;;20.20;45.40;;;;;;7673254;23;20005;-66
2021/04/15 01:13:23;;;;;;;1.48;0.90;;;20.20;45.50;;;;;;7673514;23;20293;-66
2021/04/15 01:16:52;;;;;;;0.75;0.75;;;20.20;45.30;;;;;;7673473;23;20467;-66
2021/04/15 01:20:23;;;;;;;1.00;0.90;;;20.20;45.30;;;;;;7673808;23;20013;-66
2021/04/15 01:23:48;;;;;;;0.75;0.70;;;20.20;45.30;;;;;;7646342;23;20005;-66
2021/04/15 01:27:18;;;;;;;0.90;0.70;;;20.20;46.10;;;;;;7673018;23;20024;-65
2021/04/15 01:30:29;;;;;;;0.98;0.85;;;20.20;45.30;;;;;;7673181;23;20016;-65
2021/04/15 01:33:40;;;;;;;1.23;0.80;;;20.20;45.40;;;;;;7673140;23;20076;-66
2021/04/15 01:37:03;;;;;;;0.80;0.80;;;20.20;45.50;;;;;;7673234;23;20040;-65
2021/04/15 01:40:15;;;;;;;1.00;0.80;;;20.20;45.50;;;;;;7673199;23;20012;-66
2021/04/15 01:43:42;;;;;;;1.23;0.80;;;20.20;45.50;;;;;;7673531;23;20072;-65
2021/04/15 01:46:43;;;;;;;0.95;0.85;;;20.20;45.50;;;;;;7673306;23;20029;-66
2021/04/15 01:49:51;;;;;;;0.90;0.70;;;20.20;45.30;;;;;;7673070;23;20070;-66
2021/04/15 01:52:57;;;;;;;1.30;0.82;;;20.20;45.50;;;;;;7673744;23;20012;-66
2021/04/15 01:56:12;;;;;;;1.05;0.77;;;20.20;45.30;;;;;;7673075;23;20060;-66
2021/04/15 01:59:40;;;;;;;2.03;0.95;;;20.20;45.40;;;;;;7674835;23;20507;-66
2021/04/15 02:02:49;;;;;;;1.20;0.75;;;20.20;45.40;;;;;;7675272;23;20009;-66
2021/04/15 02:05:56;;;;;;;1.27;0.88;;;20.20;45.40;;;;;;7675384;23;20005;-65
2021/04/15 02:09:00;;;;;;;0.70;0.70;;;20.20;45.30;;;;;;7675264;23;20009;-67
2021/04/15 02:12:24;;;;;;;0.95;0.75;;;20.20;45.50;;;;;;7675257;23;20040;-65
2021/04/15 02:15:29;;;;;;;0.70;0.70;;;20.20;45.40;;;;;;7674826;23;20013;-66
2021/04/15 02:18:50;;;;;;;0.55;0.55;;;20.20;45.30;;;;;;7674593;23;20091;-65
2021/04/15 02:22:10;;;;;;;0.80;0.73;;;20.20;45.30;;;;;;7675107;23;20012;-66
2021/04/15 02:25:34;;;;;;;1.77;1.15;;;20.20;45.40;;;;;;7674783;23;20325;-65
2021/04/15 02:28:46;;;;;;;0.82;0.80;;;20.20;45.50;;;;;;7674830;23;20108;-66
2021/04/15 02:32:22;;;;;;;1.58;0.90;;;20.20;45.50;;;;;;7675400;23;20528;-66
2021/04/15 02:35:27;;;;;;;0.90;0.80;;;20.20;45.40;;;;;;7640980;23;20012;-66
2021/04/15 02:38:56;;;;;;;1.08;0.80;;;20.20;45.50;;;;;;7675106;23;20013;-66
2021/04/15 02:42:01;;;;;;;1.00;0.80;;;20.20;45.40;;;;;;7668422;23;20549;-65
2021/04/15 02:45:17;;;;;;;1.33;0.90;;;20.20;45.50;;;;;;7674905;23;20001;-66
2021/04/15 02:48:27;;;;;;;1.88;0.75;;;20.20;45.40;;;;;;7674772;23;20005;-66
2021/04/15 02:51:34;;;;;;;1.23;0.95;;;20.20;45.50;;;;;;7675272;23;20001;-66
2021/04/15 02:54:39;;;;;;;1.08;0.70;;;20.20;45.50;;;;;;7674713;23;20067;-66
2021/04/15 02:57:45;;;;;;;1.05;0.70;;;20.20;45.50;;;;;;7674706;23;20001;-66
2021/04/15 03:00:48;;;;;;;0.88;0.80;;;20.20;45.50;;;;;;7675144;23;20012;-66
2021/04/15 03:03:52;;;;;;;1.17;0.80;;;20.20;45.40;;;;;;7674703;23;20009;-66
2021/04/15 03:06:55;;;;;;;0.80;0.80;;;20.20;45.50;;;;;;7674679;23;20011;-66
2021/04/15 03:10:00;;;;;;;0.95;0.75;;;20.20;45.40;;;;;;7674711;23;20001;-66
2021/04/15 03:13:19;;;;;;;0.63;0.63;;;20.20;45.50;;;;;;7675019;23;20096;-65
2021/04/15 03:16:24;;;;;;;0.90;0.73;;;20.20;45.50;;;;;;7674476;23;20009;-66
2021/04/15 03:19:33;;;;;;;0.90;0.70;;;20.20;45.40;;;;;;7674185;23;20088;-65
2021/04/15 03:22:55;;;;;;;1.20;0.93;;;20.20;45.50;;;;;;7674156;23;20340;-66
2021/04/15 03:25:58;;;;;;;1.10;0.75;;;20.20;45.50;;;;;;7674763;23;20432;-66
2021/04/15 03:29:13;;;;;;;1.13;0.80;;;20.20;45.50;;;;;;7674322;23;20345;-66
2021/04/15 03:32:23;;;;;;;0.98;0.73;;;20.20;45.60;;;;;;7674140;23;20355;-65
2021/04/15 03:35:31;;;;;;;1.13;0.90;;;20.20;45.50;;;;;;7674330;23;20332;-65
2021/04/15 03:38:39;;;;;;;0.90;0.80;;;20.20;46.20;;;;;;7674033;23;20021;-65
2021/04/15 03:41:43;;;;;;;0.50;0.50;;;20.20;45.50;;;;;;7674131;23;20005;-65
2021/04/15 03:44:47;;;;;;;0.98;0.77;;;20.20;45.50;;;;;;7674225;23;20092;-65
2021/04/15 03:47:54;;;;;;;0.90;0.63;;;20.20;45.50;;;;;;7673995;23;20005;-65
2021/04/15 03:51:07;;;;;;;0.95;0.70;;;20.20;45.50;;;;;;7674292;23;20012;-65
2021/04/15 03:54:14;;;;;;;0.80;0.65;;;20.20;46.30;;;;;;7674340;23;20005;-65
2021/04/15 03:57:23;;;;;;;1.30;0.73;;;20.20;45.50;;;;;;7673881;23;20456;-65
2021/04/15 04:00:31;;;;;;;0.60;0.60;;;20.20;45.50;;;;;;7671005;23;20365;-65
2021/04/15 04:03:35;;;;;;;0.90;0.60;;;20.20;45.40;;;;;;7673195;23;20025;-65
2021/04/15 04:06:42;;;;;;;0.73;0.68;;;20.20;45.40;;;;;;7674519;23;20008;-65
2021/04/15 04:09:49;;;;;;;1.17;0.80;;;20.20;45.50;;;;;;7673507;23;20004;-64
2021/04/15 04:13:22;;;;;;;0.93;0.73;;;20.20;45.50;;;;;;7673924;23;20005;-65
2021/04/15 04:16:34;;;;;;;0.88;0.70;;;20.20;45.40;;;;;;7673468;23;20004;-65
2021/04/15 04:19:49;;;;;;;0.93;0.70;;;20.20;45.40;;;;;;7673871;23;20017;-65
2021/04/15 04:23:10;;;;;;;0.70;0.70;;;20.20;45.30;;;;;;7673496;23;20034;-66
2021/04/15 04:26:25;;;;;;;0.70;0.65;;;20.20;45.40;;;;;;7673885;23;20009;-65
2021/04/15 04:29:34;;;;;;;0.98;0.80;;;20.20;45.30;;;;;;7673468;23;20344;-65
2021/04/15 04:32:35;;;;;;;0.70;0.52;;;20.20;45.40;;;;;;7673767;23;20001;-65
2021/04/15 04:35:40;;;;;;;1.05;0.70;;;20.20;45.30;;;;;;7673579;23;20076;-65
2021/04/15 04:38:42;;;;;;;0.93;0.80;;;20.20;45.40;;;;;;7673841;23;20040;-67
2021/04/15 04:42:00;;;;;;;0.70;0.68;;;20.20;45.30;;;;;;7673342;23;20456;-64
2021/04/15 04:45:01;;;;;;;0.80;0.60;;;20.20;45.40;;;;;;7673649;23;20498;-64
2021/04/15 04:48:31;;;;;;;0.60;0.60;;;20.20;45.30;;;;;;7673386;23;20001;-64
2021/04/15 04:51:56;;;;;;;0.98;0.80;;;20.20;45.20;;;;;;7673318;23;20012;-65
2021/04/15 04:54:58;;;;;;;0.80;0.70;;;20.20;45.20;;;;;;7673328;23;20306;-65
2021/04/15 04:57:59;;;;;;;1.20;0.70;;;20.20;45.30;;;;;;7673206;23;20895;-65
2021/04/15 05:01:00;;;;;;;1.55;0.70;;;20.20;45.20;;;;;;7673358;23;20076;-65
2021/04/15 05:04:02;;;;;;;3.15;0.95;;;20.20;45.20;;;;;;7673859;23;20436;-65
2021/04/15 05:07:10;;;;;;;1.40;0.60;;;20.20;45.30;;;;;;7673715;23;20031;-65
2021/04/15 05:10:18;;;;;;;0.70;0.70;;;20.20;45.10;;;;;;7673184;23;20033;-65
2021/04/15 05:13:24;;;;;;;1.67;0.60;;;20.20;45.10;;;;;;7674672;23;20076;-65
2021/04/15 05:16:32;;;;;;;1.75;0.75;;;20.20;45.20;;;;;;7672407;23;20454;-65
2021/04/15 05:19:35;;;;;;;2.35;0.90;;;20.20;45.20;;;;;;7674319;23;20020;-65
2021/04/15 05:23:06;;;;;;;1.08;0.80;;;20.20;45.00;;;;;;7663584;23;20009;-65
2021/04/15 05:26:32;;;;;;;1.60;0.70;;;20.20;45.10;;;;;;7670308;23;20012;-65
2021/04/15 05:29:40;;;;;;;1.20;0.80;;;20.20;45.10;;;;;;7673069;23;20052;-66
2021/04/15 05:32:44;;;;;;;2.80;0.73;;;20.20;45.10;;;;;;7672866;23;20016;-66
2021/04/15 05:36:18;;;;;;;0.73;0.55;;;20.20;45.20;;;;;;7676112;23;20060;-68
2021/04/15 05:39:20;;;;;;;1.63;0.70;;;20.20;45.10;;;;;;7673200;23;20111;-65
2021/04/15 05:42:59;;;;;;;1.15;0.70;;;20.20;45.20;;;;;;7675991;23;20432;-66
2021/04/15 05:46:11;;;;;;;2.25;0.70;;;20.20;45.20;;;;;;7672546;23;20005;-65
2021/04/15 05:49:23;;;;;;;1.45;0.70;;;20.20;45.30;;;;;;7676198;23;20012;-66
2021/04/15 05:52:38;;;;;;;3.55;0.85;;;20.20;45.30;;;;;;7674766;23;20005;-65
2021/04/15 05:55:43;;;;;;;4.07;0.97;;;20.20;45.30;;;;;;7675300;23;20000;-65
2021/04/15 05:58:50;;;;;;;2.78;0.73;;;20.20;45.30;;;;;;7675873;23;20013;-65
2021/04/15 06:02:31;;;;;;;0.88;0.70;;;20.20;45.30;;;;;;7675958;23;20083;-65
2021/04/15 06:05:40;;;;;;;4.53;0.85;;;20.20;45.20;;;;;;7598668;23;20009;-65
2021/04/15 06:08:42;;;;;;;0.73;0.70;;;20.30;45.50;;;;;;7600114;23;20194;-65
2021/04/15 06:11:56;;;;;;;2.97;0.90;;;20.20;45.30;;;;;;7676475;23;20480;-65
2021/04/15 06:15:10;;;;;;;1.63;0.88;;;20.20;45.30;;;;;;7677050;23;20385;-65
2021/04/15 06:18:41;;;;;;;0.90;0.70;;;20.20;45.30;;;;;;7677039;23;20016;-66
2021/04/15 06:22:19;;;;;;;0.77;0.63;;;20.30;45.30;;;;;;7676867;23;20088;-67
2021/04/15 06:25:26;;;;;;;0.98;0.63;;;20.20;45.30;;;;;;7677284;23;20001;-67
2021/04/15 06:28:31;;;;;;;4.70;0.70;;;20.20;45.30;;;;;;7676951;23;20028;-68
2021/04/15 06:31:39;;;;;;;2.83;1.27;;;20.30;45.50;;;;;;7677111;23;20485;-67
2021/04/15 06:34:40;;;;;;;1.02;0.70;;;20.20;45.40;;;;;;7675826;23;20313;-68
2021/04/15 06:37:46;;;;;;;1.23;0.70;;;20.30;45.40;;;;;;7676592;23;20005;-68
2021/04/15 06:41:22;;;;;;;4.68;0.90;;;20.30;45.40;;;;;;7676314;23;20040;-67
2021/04/15 06:44:34;;;;;;;1.13;0.68;;;20.30;45.40;;;;;;7674665;23;20458;-67
2021/04/15 06:47:35;;;;;;;1.60;0.73;;;20.20;45.50;;;;;;7673353;23;20495;-67
2021/04/15 06:51:00;;;;;;;6.47;0.90;;;20.20;45.40;;;;;;7676767;23;20001;-67
2021/04/15 06:54:37;;;;;;;1.25;0.70;;;20.30;45.60;;;;;;7675612;23;20417;-67
2021/04/15 06:57:53;;;;;;;2.47;0.95;;;20.30;45.30;;;;;;7676478;23;20009;-68
2021/04/15 07:01:01;;;;;;;3.65;0.75;;;20.30;45.30;;;;;;7676788;23;20020;-67
2021/04/15 07:04:10;;;;;;;6.05;0.88;;;20.30;45.30;;;;;;7675574;23;20028;-67
2021/04/15 07:07:22;;;;;;;1.67;0.68;;;20.30;45.40;;;;;;7677024;23;20009;-67
2021/04/15 07:10:23;;;;;;;3.17;0.90;;;20.30;45.50;;;;;;7676615;23;20087;-68
2021/04/15 07:13:50;;;;;;;2.17;0.70;;;20.30;45.40;;;;;;7675612;23;20009;-67
2021/04/15 07:17:33;;;;;;;3.22;0.80;;;20.30;45.50;;;;;;7676135;23;20009;-67
2021/04/15 07:20:49;;;;;;;2.38;0.70;;;20.30;45.50;;;;;;7676378;23;20027;-68
2021/04/15 07:24:22;;;;;;;4.47;0.73;;;20.30;45.20;;;;;;7698725;23;20013;-68
2021/04/15 07:28:04;;;;;;;2.55;0.82;;;20.40;45.20;;;;;;7676048;23;20016;-68
2021/04/15 07:31:33;;;;;;;4.22;0.70;;;20.40;45.10;;;;;;7676123;23;20349;-68
2021/04/15 07:35:07;;;;;;;3.40;1.05;;;20.40;45.00;;;;;;7675428;23;20011;-67
2021/04/15 07:38:34;;;;;;;1.35;0.88;;;20.40;45.00;;;;;;7676081;23;20489;-67
2021/04/15 07:41:53;;;;;;;1.20;0.75;;;20.40;44.90;;;;;;7675979;23;20096;-67
2021/04/15 07:44:58;;;;;;;2.42;0.82;;;20.40;44.90;;;;;;7675832;23;20001;-67
2021/04/15 07:48:28;;;;;;;1.05;0.70;;;20.40;44.90;;;;;;7676188;23;20001;-67
2021/04/15 07:51:54;;;;;;;1.83;0.80;;;20.50;44.90;;;;;;7675776;23;20005;-67
2021/04/15 07:54:57;;;;;;;1.00;0.70;;;20.50;44.80;;;;;;7675234;23;20042;-67
2021/04/15 07:58:10;;;;;;;0.85;0.60;;;20.50;44.80;;;;;;7675953;23;20009;-68
2021/04/15 08:01:37;;;;;;;1.50;0.77;;;20.50;44.80;;;;;;7675831;23;20350;-68
2021/04/15 08:04:47;;;;;;;1.52;0.70;;;20.50;44.70;;;;;;7674550;23;20013;-67
2021/04/15 08:08:09;;;;;;;3.70;0.80;;;20.50;44.80;;;;;;7674680;23;20467;-67
2021/04/15 08:11:41;;;;;;;1.25;0.70;;;20.50;44.60;;;;;;7675857;23;20012;-67
2021/04/15 08:15:00;;;;;;;1.27;0.75;;;20.50;44.60;;;;;;7675470;23;20063;-67
2021/04/15 08:18:22;;;;;;;2.88;0.80;;;20.50;44.50;;;;;;7674920;23;20075;-67
2021/04/15 08:21:37;;;;;;;1.52;0.65;;;20.50;44.70;;;;;;7673040;23;20044;-67
2021/04/15 08:24:47;;;;;;;2.95;0.70;;;20.50;44.70;;;;;;7673844;23;20287;-67
2021/04/15 08:28:17;;;;;;;1.73;0.90;;;20.50;44.70;;;;;;7674196;23;20055;-67
2021/04/15 08:31:24;;;;;;;1.77;0.60;;;20.50;44.70;;;;;;7674078;23;20009;-67
2021/04/15 08:34:35;;;;;;;3.53;0.90;;;20.40;44.80;;;;;;7674349;23;20005;-68
2021/04/15 08:38:13;;;;;;;3.00;0.70;;;20.40;44.70;;;;;;7674486;23;20059;-67
2021/04/15 08:41:56;;;;;;;10.55;1.10;;;20.40;44.90;;;;;;7674080;23;20012;-67
2021/04/15 08:45:06;;;;;;;2.88;0.80;;;20.50;45.20;;;;;;7665096;23;20055;-67
2021/04/15 08:48:27;;;;;;;9.50;0.75;;;20.50;45.30;;;;;;7675074;23;20444;-67
2021/04/15 08:51:55;;;;;;;1.30;0.98;;;20.40;45.10;;;;;;7674338;23;20053;-67
2021/04/15 08:55:25;;;;;;;2.42;0.82;;;20.40;44.30;;;;;;7674827;23;20009;-67
2021/04/15 08:59:03;;;;;;;1.77;0.75;;;20.40;44.30;;;;;;7674966;23;20095;-66
2021/04/15 09:02:09;;;;;;;1.23;0.57;;;20.40;44.20;;;;;;7674855;23;20001;-67
2021/04/15 09:05:20;;;;;;;1.52;0.80;;;20.40;44.20;;;;;;7674869;23;20011;-67
2021/04/15 09:08:30;;;;;;;3.83;0.80;;;20.40;44.30;;;;;;7677200;23;20005;-67
2021/04/15 09:12:24;;;;;;;1.27;0.70;;;20.40;44.00;;;;;;7679151;23;20092;-67
2021/04/15 09:15:46;;;;;;;2.45;0.82;;;20.40;43.90;;;;;;7611498;23;20071;-66
2021/04/15 09:19:27;;;;;;;2.05;0.75;;;20.40;44.00;;;;;;7678857;23;20024;-67
2021/04/15 09:22:34;;;;;;;2.60;0.80;;;20.30;43.80;;;;;;7679556;23;20088;-66
2021/04/15 09:25:43;;;;;;;1.05;0.80;;;20.30;43.90;;;;;;7678994;23;20005;-67
2021/04/15 09:29:02;;;;;;;1.85;0.90;;;20.30;43.80;;;;;;7678799;23;20028;-67
2021/04/15 09:32:29;;;;;;;3.60;1.05;;;20.30;43.80;;;;;;7679066;23;20072;-67
2021/04/15 09:35:56;;;;;;;2.75;0.70;;;20.30;43.80;;;;;;7649932;23;20373;-67
2021/04/15 09:39:17;;;;;;;1.55;0.82;;;20.30;43.80;;;;;;7679061;23;20105;-67
2021/04/15 09:42:46;;;;;;;1.67;0.80;;;20.30;43.80;;;;;;7678971;23;20384;-67
2021/04/15 09:46:25;;;;;;;1.70;0.77;;;20.30;43.70;;;;;;7678692;23;20352;-67
2021/04/15 09:49:56;;;;;;;1.23;0.80;;;20.30;43.90;;;;;;7664463;23;20005;-67
2021/04/15 09:53:08;;;;;;;0.70;0.70;;;20.30;43.70;;;;;;7679086;23;20123;-67
2021/04/15 09:56:37;;;;;;;1.05;0.80;;;20.30;43.80;;;;;;7679084;23;20009;-67
2021/04/15 09:59:49;;;;;;;1.10;0.70;;;20.30;43.60;;;;;;7678404;23;20385;-66
2021/04/15 10:03:07;;;;;;;1.90;1.05;;;20.30;43.50;;;;;;7678996;23;20059;-67
2021/04/15 10:06:17;;;;;;;1.08;0.80;;;20.30;43.40;;;;;;7678539;23;20025;-67
2021/04/15 10:09:27;;;;;;;0.65;0.60;;;20.30;43.40;;;;;;7678635;23;20001;-67
2021/04/15 10:12:40;;;;;;;2.78;0.80;;;20.30;43.50;;;;;;7678991;23;20437;-66
2021/04/15 10:15:57;;;;;;;1.10;0.70;;;20.30;43.50;;;;;;7678658;23;20023;-67
2021/04/15 10:19:36;;;;;;;0.77;0.70;;;20.30;43.70;;;;;;7678476;23;20012;-67
2021/04/15 10:23:10;;;;;;;0.82;0.50;;;20.30;43.20;;;;;;7677142;23;20005;-67
2021/04/15 10:26:26;;;;;;;1.20;0.70;;;20.30;43.00;;;;;;7677199;23;20009;-67
2021/04/15 10:29:47;;;;;;;0.82;0.70;;;20.30;43.00;;;;;;7676905;23;20020;-67
2021/04/15 10:33:02;;;;;;;3.80;0.60;;;20.30;43.90;;;;;;7677263;23;20001;-67
2021/04/15 10:36:36;;;;;;;3.08;0.88;;;20.30;43.10;;;;;;7676450;23;20011;-67
2021/04/15 10:40:09;;;;;;;1.00;0.75;;;20.30;43.10;;;;;;7676429;23;20088;-67
2021/04/15 10:43:37;;;;;;;1.13;0.77;;;20.30;43.00;;;;;;7651637;23;20024;-67
2021/04/15 10:46:46;;;;;;;0.82;0.50;;;20.30;43.20;;;;;;7676270;23;20081;-67
2021/04/15 10:50:32;;;;;;;1.40;0.70;;;20.30;42.90;;;;;;7676600;23;20093;-67
2021/04/15 10:53:48;;;;;;;1.07;0.67;;;20.20;43.40;;;;;;7652006;23;20384;-67
2021/04/15 10:56:58;;;;;;;0.95;0.70;;;20.30;43.60;;;;;;7676089;23;20383;-68
2021/04/15 11:00:31;;;;;;;0.98;0.73;;;20.30;43.50;;;;;;7675999;23;20412;-67
2021/04/15 11:03:35;;;;;;;0.77;0.60;;;20.30;42.90;;;;;;7675820;23;20001;-67
2021/04/15 11:07:06;;;;;;;0.88;0.70;;;20.30;43.10;;;;;;7676092;23;20031;-67
2021/04/15 11:10:29;;;;;;;3.05;0.70;;;20.30;43.00;;;;;;7676249;23;20012;-67
2021/04/15 11:13:29;;;;;;;1.55;0.65;;;20.30;43.00;;;;;;7665361;23;20113;-67
2021/04/15 11:16:32;;;;;;;3.13;0.93;;;20.30;43.10;;;;;;7674467;23;20005;-66
2021/04/15 11:19:34;;;;;;;10.18;1.00;;;20.30;42.80;;;;;;7674393;23;20017;-68
2021/04/15 11:22:37;;;;;;;6.13;1.02;;;20.20;42.40;;;;;;7672647;23;20420;-66
2021/04/15 11:25:44;;;;;;;8.35;1.00;;;20.20;42.30;;;;;;7672450;23;20306;-67
2021/04/15 11:28:46;;;;;;;1.83;0.75;;;20.20;42.50;;;;;;7672037;23;20456;-66
2021/04/15 11:31:47;;;;;;;1.52;0.77;;;20.30;42.80;;;;;;7673858;23;20365;-67
2021/04/15 11:35:22;;;;;;;3.67;0.90;;;20.30;42.90;;;;;;7674015;23;20009;-66
2021/04/15 11:38:24;;;;;;;2.88;1.23;;;20.30;42.80;;;;;;7639369;23;20462;-67
2021/04/15 11:41:29;;;;;;;3.67;0.88;;;20.30;43.10;;;;;;7673759;23;20005;-67
2021/04/15 11:44:45;;;;;;;1.15;0.77;;;20.30;42.90;;;;;;7673936;23;20005;-67
2021/04/15 11:47:45;;;;;;;4.45;0.70;;;20.30;42.90;;;;;;7673829;23;20001;-67
2021/04/15 11:50:51;;;;;;;1.17;0.80;;;20.30;42.90;;;;;;7673148;23;20005;-67
2021/04/15 11:53:54;;;;;;;2.10;0.70;;;20.30;43.10;;;;;;7673030;23;20005;-66
2021/04/15 11:56:55;;;;;;;2.10;1.00;;;20.30;43.10;;;;;;7672803;23;20012;-67
2021/04/15 11:59:59;;;;;;;4.25;1.10;;;20.30;43.00;;;;;;7673405;23;20009;-67
2021/04/15 12:02:59;;;;;;;1.23;0.80;;;20.30;43.20;;;;;;7672575;23;20001;-67
2021/04/15 12:06:10;;;;;;;5.55;0.93;;;20.20;42.90;;;;;;7673916;23;20198;-67
2021/04/15 12:09:15;;;;;;;3.03;0.90;;;20.20;43.30;;;;;;7673959;23;20100;-67
2021/04/15 12:12:30;;;;;;;2.72;0.77;;;20.20;42.40;;;;;;7673679;23;20053;-67
2021/04/15 12:15:35;;;;;;;11.40;1.20;;;20.30;42.50;;;;;;7672575;23;20460;-67
2021/04/15 12:18:41;;;;;;;;;;;20.30;42.80;;;;;;7672845;23;20376;-66
2021/04/15 12:21:58;;;;;;;10.27;1.48;;;20.30;42.80;;;;;;7673542;23;19920;-67
2021/04/15 12:25:13;;;;;;;9.48;1.40;;;20.20;42.80;;;;;;7673667;23;20009;-67
2021/04/15 12:28:35;;;;;;;5.13;1.20;;;20.30;43.20;;;;;;7671898;23;20017;-67
2021/04/15 12:31:54;;;;;;;8.40;1.20;;;20.30;43.10;;;;;;7673550;23;20075;-67
2021/04/15 12:35:12;;;;;;;6.82;1.02;;;20.30;43.00;;;;;;7672821;23;20012;-67
2021/04/15 12:38:19;;;;;;;6.47;1.33;;;20.30;43.10;;;;;;7672354;23;20017;-67
2021/04/15 12:41:20;;;;;;;6.50;1.20;;;20.30;43.00;;;;;;7672172;23;20008;-66
2021/04/15 12:44:28;;;;;;;6.50;1.35;;;20.30;42.80;;;;;;7673101;23;20171;-66
2021/04/15 12:47:32;;;;;;;3.78;1.00;;;20.30;42.80;;;;;;7673136;23;20032;-67
2021/04/15 12:50:34;;;;;;;2.63;1.20;;;20.30;42.90;;;;;;7672247;23;20040;-67
2021/04/15 12:53:38;;;;;;;4.85;1.05;;;20.30;43.00;;;;;;7671728;23;20001;-67
2021/04/15 12:56:45;;;;;;;2.67;0.90;;;20.30;43.20;;;;;;7672927;23;20002;-66
2021/04/15 12:59:50;;;;;;;7.07;1.08;;;20.30;43.00;;;;;;7673006;23;20009;-67
2021/04/15 13:02:51;;;;;;;2.05;0.80;;;20.30;43.00;;;;;;7673996;23;20005;-67
2021/04/15 13:05:54;;;;;;;5.93;0.80;;;20.30;43.10;;;;;;7672216;23;20005;-67
2021/04/15 13:08:56;;;;;;;3.38;0.77;;;20.30;42.90;;;;;;7672871;23;20005;-66
2021/04/15 13:11:57;;;;;;;3.60;1.00;;;20.30;43.40;;;;;;7673500;23;20306;-67
2021/04/15 13:15:00;;;;;;;5.20;1.15;;;20.30;44.20;;;;;;7672754;23;20338;-66
2021/04/15 13:18:06;;;;;;;13.80;1.27;;;20.20;43.60;;;;;;7671429;23;20017;-67
2021/04/15 13:21:12;;;;;;;4.15;0.90;;;20.20;40.20;;;;;;7671805;23;20311;-67
2021/04/15 13:24:49;;;;;;;3.33;0.85;;;20.20;39.90;;;;;;7672235;23;20274;-67
2021/04/15 13:27:55;;;;;;;3.40;0.88;;;20.20;40.20;;;;;;7672520;23;20024;-67
2021/04/15 13:30:58;;;;;;;3.35;0.88;;;20.20;41.10;;;;;;7671325;23;19997;-67
2021/04/15 13:34:25;;;;;;;4.10;1.10;;;20.20;40.90;;;;;;7672493;23;20012;-67
2021/04/15 13:37:39;;;;;;;4.97;0.80;;;20.20;41.10;;;;;;7672071;23;20016;-67
2021/04/15 13:40:49;;;;;;;4.25;0.65;;;20.20;41.20;;;;;;7671836;23;20005;-67
2021/04/15 13:43:59;;;;;;;2.38;0.63;;;20.20;41.30;;;;;;7672634;23;20012;-67
2021/04/15 13:47:38;;;;;;;4.60;0.80;;;20.20;41.50;;;;;;7672779;23;20005;-67
2021/04/15 13:51:11;;;;;;;4.35;0.85;;;20.20;41.50;;;;;;7672819;23;20011;-67
2021/04/15 13:54:17;;;;;;;2.25;1.08;;;20.20;41.60;;;;;;7672850;23;20125;-67
2021/04/15 13:57:19;;;;;;;1.60;0.75;;;20.20;41.40;;;;;;7674200;23;20005;-67
2021/04/15 14:00:45;;;;;;;3.38;1.13;;;20.20;41.70;;;;;;7675654;23;20008;-67
2021/04/15 14:03:46;;;;;;;5.68;0.60;;;20.20;41.50;;;;;;7675125;23;20344;-67
2021/04/15 14:06:47;;;;;;;2.45;0.82;;;20.20;41.50;;;;;;7673409;23;20005;-67
2021/04/15 14:09:50;;;;;;;1.58;0.85;;;20.20;41.50;;;;;;7675456;23;20009;-67
2021/04/15 14:12:57;;;;;;;1.33;0.63;;;20.20;41.80;;;;;;7674985;23;20306;-67
2021/04/15 14:16:03;;;;;;;1.25;0.70;;;20.20;41.60;;;;;;7675194;23;20155;-66
2021/04/15 14:19:15;;;;;;;1.25;0.80;;;20.20;41.60;;;;;;7674551;23;20013;-67
2021/04/15 14:22:19;;;;;;;1.98;0.73;;;20.20;42.10;;;;;;7674532;23;20025;-67
2021/04/15 14:25:31;;;;;;;1.42;0.57;;;20.20;41.80;;;;;;7674826;23;20005;-67
2021/04/15 14:28:35;;;;;;;0.95;0.70;;;20.20;42.50;;;;;;7674133;23;20095;-67
2021/04/15 14:31:48;;;;;;;1.58;0.70;;;20.20;41.90;;;;;;7673210;23;20008;-67
2021/04/15 14:34:57;;;;;;;1.33;0.60;;;20.20;41.90;;;;;;7675005;23;20328;-67
2021/04/15 14:38:03;;;;;;;1.52;0.70;;;20.20;41.90;;;;;;7675226;23;20013;-67
2021/04/15 14:41:07;;;;;;;1.23;0.75;;;20.20;41.90;;;;;;7674639;23;20072;-67
2021/04/15 14:44:16;;;;;;;1.33;0.80;;;20.20;42.00;;;;;;7674521;23;20012;-67
2021/04/15 14:47:35;;;;;;;0.90;0.77;;;20.20;42.00;;;;;;7674369;23;20012;-67
2021/04/15 14:50:41;;;;;;;2.30;0.80;;;20.20;42.20;;;;;;7675308;23;20005;-67
2021/04/15 14:53:44;;;;;;;0.75;0.60;;;20.20;41.90;;;;;;7674638;23;20309;-67
2021/04/15 14:56:45;;;;;;;0.95;0.68;;;20.20;42.40;;;;;;7673928;23;20009;-66
2021/04/15 14:59:46;;;;;;;1.65;0.70;;;20.20;42.90;;;;;;7675409;23;20016;-67
2021/04/15 15:02:47;;;;;;;6.30;0.63;;;20.20;42.40;;;;;;7674373;23;20092;-67
2021/04/15 15:05:49;;;;;;;3.63;0.63;;;20.20;41.20;;;;;;7673895;23;20020;-68
2021/04/15 15:08:49;;;;;;;1.83;1.10;;;20.10;40.70;;;;;;7673970;23;20442;-67
2021/04/15 15:11:51;;;;;;;2.67;0.60;;;20.10;40.30;;;;;;7674455;23;20009;-67
2021/04/15 15:14:52;;;;;;;1.45;0.70;;;20.10;40.10;;;;;;7675178;23;20005;-67
2021/04/15 15:17:59;;;;;;;3.05;0.90;;;20.00;38.50;;;;;;7673947;23;20013;-67
2021/04/15 15:21:16;;;;;;;4.80;1.10;;;20.00;38.20;;;;;;7673445;23;20008;-67
2021/04/15 15:24:22;;;;;;;5.80;0.90;;;20.00;39.30;;;;;;7674425;23;20336;-66
2021/04/15 15:27:24;;;;;;;4.43;1.20;;;20.00;37.00;;;;;;7673945;23;20015;-67
2021/04/15 15:30:34;;;;;;;6.43;1.00;;;20.00;36.40;;;;;;7675114;23;20001;-67
2021/04/15 15:33:40;;;;;;;5.00;0.73;;;20.00;35.90;;;;;;7672912;23;20009;-66
2021/04/15 15:36:40;;;;;;;3.13;1.10;;;20.00;37.60;;;;;;7673737;23;20049;-67
2021/04/15 15:39:43;;;;;;;3.25;0.73;;;20.00;37.40;;;;;;7674414;23;20430;-67
2021/04/15 15:43:06;;;;;;;1.98;0.85;;;20.00;36.90;;;;;;7674482;23;20021;-66
2021/04/15 15:46:50;;;;;;;3.22;0.60;;;19.90;35.60;;;;;;7673227;23;20001;-67
2021/04/15 15:50:05;;;;;;;5.55;0.70;;;19.90;35.20;;;;;;7673584;23;20005;-67
2021/04/15 15:53:23;;;;;;;5.70;0.60;;;20.00;34.40;;;;;;7669376;23;20011;-66
2021/04/15 15:56:38;;;;;;;4.88;0.70;;;20.00;33.60;;;;;;7662778;23;20056;-66
2021/04/15 15:59:43;;;;;;;1.50;0.70;;;20.00;33.20;;;;;;7667792;23;20043;-67
2021/04/15 16:03:03;;;;;;;5.47;1.00;;;20.00;33.00;;;;;;7670974;23;20040;-67
2021/04/15 16:06:12;;;;;;;3.58;0.80;;;20.00;33.70;;;;;;7669739;23;20372;-67
2021/04/15 16:09:15;;;;;;;10.90;0.60;;;20.10;34.50;;;;;;7669604;23;20013;-67
2021/04/15 16:12:26;;;;;;;4.13;0.60;;;20.00;34.90;;;;;;7671153;23;20045;-66
2021/04/15 16:15:36;;;;;;;2.47;0.60;;;20.10;35.30;;;;;;7669956;23;20072;-67
2021/04/15 16:18:37;;;;;;;5.43;0.57;;;20.10;35.70;;;;;;7668699;23;20017;-67
2021/04/15 16:21:40;;;;;;;2.38;0.60;;;20.10;36.10;;;;;;7669102;23;20427;-66
2021/04/15 16:24:41;;;;;;;1.65;0.30;;;20.10;37.00;;;;;;7670062;23;20016;-67
2021/04/15 16:27:41;;;;;;;2.05;0.60;;;20.10;36.40;;;;;;7669063;23;20021;-67
2021/04/15 16:30:43;;;;;;;1.30;0.40;;;20.10;36.60;;;;;;7670567;23;20005;-65
2021/04/15 16:33:43;;;;;;;0.88;0.45;;;20.10;36.80;;;;;;7669226;23;20471;-66
2021/04/15 16:36:44;;;;;;;1.85;0.57;;;20.10;36.80;;;;;;7668922;23;20005;-66
2021/04/15 16:39:45;;;;;;;1.10;0.50;;;20.10;37.20;;;;;;7669348;23;20016;-66
2021/04/15 16:42:46;;;;;;;1.67;0.70;;;20.10;37.20;;;;;;7670111;23;20008;-65
2021/04/15 16:45:47;;;;;;;3.28;0.70;;;20.10;37.10;;;;;;7668824;23;20009;-67